createdAt,value
2023-04-08T00:00:32.377Z,88204.00
2023-04-08T00:01:32.373Z,88204.00
2023-04-08T00:02:32.715Z,88204.00
2023-04-08T00:03:32.642Z,88206.00
2023-04-08T00:04:32.569Z,88206.00
2023-04-08T00:05:32.475Z,88202.00
2023-04-08T00:06:32.517Z,88204.00
2023-04-08T00:07:32.579Z,88208.00
2023-04-08T00:08:32.574Z,88208.00
2023-04-08T00:09:32.612Z,88206.00
2023-04-08T00:10:32.779Z,88208.00
2023-04-08T00:11:32.681Z,88210.00
2023-04-08T00:12:32.696Z,88208.00
2023-04-08T00:13:32.737Z,88208.00
2023-04-08T00:14:32.787Z,88204.00
2023-04-08T00:15:32.786Z,88206.00
2023-04-08T00:16:32.895Z,88210.00
2023-04-08T00:17:32.868Z,88208.00
2023-04-08T00:18:32.896Z,88210.00
2023-04-08T00:19:35.160Z,88210.00
2023-04-08T00:20:32.870Z,88210.00
2023-04-08T00:21:32.846Z,88212.00
2023-04-08T00:22:32.806Z,88210.00
2023-04-08T00:23:32.790Z,88214.00
2023-04-08T00:24:32.761Z,88210.00
2023-04-08T00:25:32.741Z,88210.00
2023-04-08T00:26:32.713Z,88210.00
2023-04-08T00:27:32.690Z,88210.00
2023-04-08T00:28:32.653Z,88210.00
2023-04-08T00:29:32.634Z,88206.00
2023-04-08T00:30:32.727Z,88206.00
2023-04-08T00:31:32.654Z,88208.00
2023-04-08T00:32:32.700Z,88208.00
2023-04-08T00:33:32.674Z,88202.00
2023-04-08T00:34:32.711Z,88204.00
2023-04-08T00:35:32.739Z,88202.00
2023-04-08T00:36:32.724Z,88202.00
2023-04-08T00:37:32.681Z,88198.00
2023-04-08T00:38:32.659Z,88200.00
2023-04-08T00:39:32.626Z,88200.00
2023-04-08T00:40:32.587Z,88200.00
2023-04-08T00:41:32.564Z,88198.00
2023-04-08T00:42:32.537Z,88198.00
2023-04-08T00:43:32.504Z,88200.00
2023-04-08T00:44:32.476Z,88196.00
2023-04-08T00:45:32.492Z,88198.00
2023-04-08T00:46:32.566Z,88200.00
2023-04-08T00:47:32.630Z,88198.00
2023-04-08T00:48:32.614Z,88198.00
2023-04-08T00:49:32.629Z,88200.00
2023-04-08T00:50:32.679Z,88200.00
2023-04-08T00:51:32.711Z,88200.00
2023-04-08T00:52:32.745Z,88198.00
2023-04-08T00:53:32.766Z,88196.00
2023-04-08T00:54:32.767Z,88198.00
2023-04-08T00:55:32.779Z,88198.00
2023-04-08T00:56:32.824Z,88198.00
2023-04-08T00:57:32.843Z,88196.00
2023-04-08T00:58:32.832Z,88198.00
2023-04-08T00:59:32.860Z,88196.00
2023-04-08T01:00:32.895Z,88196.00
2023-04-08T01:01:32.990Z,88198.00
2023-04-08T01:02:33.060Z,88198.00
2023-04-08T01:03:33.030Z,88198.00
2023-04-08T01:04:32.963Z,88194.00
2023-04-08T01:05:32.835Z,88193.00
2023-04-08T01:06:32.801Z,88194.00
2023-04-08T01:07:32.841Z,88194.00
2023-04-08T01:08:32.818Z,88194.00
2023-04-08T01:09:32.807Z,88194.00
2023-04-08T01:10:32.767Z,88193.00
2023-04-08T01:11:32.793Z,88194.00
2023-04-08T01:12:32.848Z,88196.00
2023-04-08T01:13:32.833Z,88196.00
2023-04-08T01:14:32.845Z,88198.00
2023-04-08T01:15:32.887Z,88196.00
2023-04-08T01:16:32.868Z,88198.00
2023-04-08T01:17:32.933Z,88194.00
2023-04-08T01:18:32.942Z,88194.00
2023-04-08T01:19:32.968Z,88194.00
2023-04-08T01:20:32.961Z,88194.00
2023-04-08T01:21:33.001Z,88194.00
2023-04-08T01:22:33.036Z,88193.00
2023-04-08T01:23:33.063Z,88193.00
2023-04-08T01:24:33.029Z,88193.00
2023-04-08T01:25:33.033Z,88193.00
2023-04-08T01:26:33.060Z,88194.00
2023-04-08T01:27:33.064Z,88189.00
2023-04-08T01:28:33.076Z,88187.00
2023-04-08T01:29:33.094Z,88189.00
2023-04-08T01:30:33.132Z,88187.00
2023-04-08T01:31:33.204Z,88193.00
2023-04-08T01:32:33.187Z,88193.00
2023-04-08T01:33:33.209Z,88189.00
2023-04-08T01:34:33.253Z,88189.00
2023-04-08T01:35:33.290Z,88189.00
2023-04-08T01:36:33.288Z,88191.00
2023-04-08T01:37:33.362Z,88187.00
2023-04-08T01:38:33.346Z,88185.00
2023-04-08T01:39:33.387Z,88185.00
2023-04-08T01:40:33.406Z,88187.00
2023-04-08T01:41:33.371Z,88189.00
2023-04-08T01:42:33.414Z,88187.00
2023-04-08T01:43:33.380Z,88183.00
2023-04-08T01:44:33.388Z,88183.00
2023-04-08T01:45:33.387Z,88181.00
2023-04-08T01:46:33.435Z,88181.00
2023-04-08T01:47:33.479Z,88183.00
2023-04-08T01:48:33.357Z,88181.00
2023-04-08T01:49:33.358Z,88181.00
2023-04-08T01:50:33.360Z,88181.00
2023-04-08T01:51:33.333Z,88179.00
2023-04-08T01:52:33.319Z,88175.00
2023-04-08T01:53:33.286Z,88179.00
2023-04-08T01:54:33.281Z,88181.00
2023-04-08T01:55:33.258Z,88181.00
2023-04-08T01:56:33.262Z,88179.00
2023-04-08T01:57:33.268Z,88179.00
2023-04-08T01:58:33.277Z,88177.00
2023-04-08T01:59:33.286Z,88179.00
2023-04-08T02:00:33.302Z,88179.00
2023-04-08T02:01:33.342Z,88179.00
2023-04-08T02:02:33.462Z,88177.00
2023-04-08T02:03:33.447Z,88177.00
2023-04-08T02:04:33.412Z,88179.00
2023-04-08T02:05:33.285Z,88179.00
2023-04-08T02:06:33.275Z,88177.00
2023-04-08T02:07:33.265Z,88181.00
2023-04-08T02:08:33.246Z,88179.00
2023-04-08T02:09:33.244Z,88181.00
2023-04-08T02:10:33.225Z,88179.00
2023-04-08T02:11:33.204Z,88179.00
2023-04-08T02:12:33.192Z,88179.00
2023-04-08T02:13:33.180Z,88181.00
2023-04-08T02:14:33.175Z,88177.00
2023-04-08T02:15:33.180Z,88177.00
2023-04-08T02:16:33.182Z,88177.00
2023-04-08T02:17:35.685Z,88181.00
2023-04-08T02:18:33.369Z,88179.00
2023-04-08T02:19:33.410Z,88183.00
2023-04-08T02:20:33.414Z,88183.00
2023-04-08T02:21:33.389Z,88185.00
2023-04-08T02:22:33.395Z,88185.00
2023-04-08T02:23:33.362Z,88187.00
2023-04-08T02:24:33.390Z,88189.00
2023-04-08T02:25:33.355Z,88187.00
2023-04-08T02:26:33.349Z,88187.00
2023-04-08T02:27:33.329Z,88191.00
2023-04-08T02:28:33.360Z,88187.00
2023-04-08T02:29:33.310Z,88187.00
2023-04-08T02:30:33.308Z,88189.00
2023-04-08T02:31:33.345Z,88191.00
2023-04-08T02:32:33.308Z,88191.00
2023-04-08T02:33:33.260Z,88194.00
2023-04-08T02:34:33.245Z,88193.00
2023-04-08T02:35:33.227Z,88193.00
2023-04-08T02:36:33.184Z,88193.00
2023-04-08T02:37:33.159Z,88193.00
2023-04-08T02:38:33.122Z,88196.00
2023-04-08T02:39:33.092Z,88196.00
2023-04-08T02:40:33.068Z,88194.00
2023-04-08T02:41:33.014Z,88196.00
2023-04-08T02:42:32.990Z,88194.00
2023-04-08T02:43:32.958Z,88194.00
2023-04-08T02:44:32.950Z,88196.00
2023-04-08T02:45:32.955Z,88193.00
2023-04-08T02:46:32.883Z,88194.00
2023-04-08T02:47:32.883Z,88193.00
2023-04-08T02:48:32.826Z,88193.00
2023-04-08T02:49:32.782Z,88196.00
2023-04-08T02:50:32.764Z,88196.00
2023-04-08T02:51:32.724Z,88194.00
2023-04-08T02:52:32.709Z,88194.00
2023-04-08T02:53:32.698Z,88193.00
2023-04-08T02:54:32.669Z,88194.00
2023-04-08T02:55:32.626Z,88193.00
2023-04-08T02:56:32.627Z,88193.00
2023-04-08T02:57:32.620Z,88193.00
2023-04-08T02:58:32.572Z,88189.00
2023-04-08T02:59:32.575Z,88189.00
2023-04-08T03:00:32.532Z,88189.00
2023-04-08T03:01:32.580Z,88189.00
2023-04-08T03:02:32.705Z,88187.00
2023-04-08T03:03:32.666Z,88191.00
2023-04-08T03:04:32.575Z,88191.00
2023-04-08T03:05:32.623Z,88189.00
2023-04-08T03:06:32.654Z,88189.00
2023-04-08T03:07:32.671Z,88191.00
2023-04-08T03:08:32.699Z,88191.00
2023-04-08T03:09:32.735Z,88189.00
2023-04-08T03:10:32.779Z,88191.00
2023-04-08T03:11:32.820Z,88193.00
2023-04-08T03:12:32.872Z,88189.00
2023-04-08T03:13:32.901Z,88191.00
2023-04-08T03:14:32.956Z,88191.00
2023-04-08T03:15:32.978Z,88191.00
2023-04-08T03:16:33.087Z,88191.00
2023-04-08T03:17:33.104Z,88191.00
2023-04-08T03:18:33.150Z,88193.00
2023-04-08T03:19:33.181Z,88194.00
2023-04-08T03:20:33.223Z,88194.00
2023-04-08T03:21:33.297Z,88194.00
2023-04-08T03:22:33.330Z,88194.00
2023-04-08T03:23:33.348Z,88193.00
2023-04-08T03:24:33.379Z,88194.00
2023-04-08T03:25:33.419Z,88193.00
2023-04-08T03:26:33.475Z,88196.00
2023-04-08T03:27:33.580Z,88194.00
2023-04-08T03:28:33.541Z,88198.00
2023-04-08T03:29:33.541Z,88196.00
2023-04-08T03:30:33.524Z,88196.00
2023-04-08T03:31:33.584Z,88193.00
2023-04-08T03:32:33.544Z,88196.00
2023-04-08T03:33:33.547Z,88194.00
2023-04-08T03:34:33.558Z,88193.00
2023-04-08T03:35:33.567Z,88194.00
2023-04-08T03:36:33.531Z,88194.00
2023-04-08T03:37:33.590Z,88196.00
2023-04-08T03:38:33.573Z,88196.00
2023-04-08T03:39:33.544Z,88196.00
2023-04-08T03:40:33.567Z,88198.00
2023-04-08T03:41:33.561Z,88193.00
2023-04-08T03:42:33.573Z,88194.00
2023-04-08T03:43:33.934Z,88191.00
2023-04-08T03:44:33.601Z,88193.00
2023-04-08T03:45:33.599Z,88194.00
2023-04-08T03:46:33.607Z,88198.00
2023-04-08T03:47:33.613Z,88198.00
2023-04-08T03:48:33.685Z,88198.00
2023-04-08T03:49:33.767Z,88204.00
2023-04-08T03:50:33.856Z,88204.00
2023-04-08T03:51:33.840Z,88198.00
2023-04-08T03:52:33.865Z,88202.00
2023-04-08T03:53:33.830Z,88204.00
2023-04-08T03:54:33.816Z,88204.00
2023-04-08T03:55:33.822Z,88204.00
2023-04-08T03:56:33.902Z,88208.00
2023-04-08T03:57:33.972Z,88206.00
2023-04-08T03:58:34.069Z,88206.00
2023-04-08T03:59:34.177Z,88206.00
2023-04-08T04:00:34.237Z,88204.00
2023-04-08T04:01:34.257Z,88204.00
2023-04-08T04:02:34.416Z,88206.00
2023-04-08T04:03:34.292Z,88206.00
2023-04-08T04:04:34.248Z,88206.00
2023-04-08T04:05:34.212Z,88204.00
2023-04-08T04:06:34.195Z,88208.00
2023-04-08T04:07:34.189Z,88204.00
2023-04-08T04:08:34.208Z,88206.00
2023-04-08T04:09:34.177Z,88206.00
2023-04-08T04:10:34.173Z,88208.00
2023-04-08T04:11:34.189Z,88206.00
2023-04-08T04:12:34.159Z,88208.00
2023-04-08T04:13:34.177Z,88210.00
2023-04-08T04:14:34.175Z,88214.00
2023-04-08T04:15:34.232Z,88214.00
2023-04-08T04:16:34.184Z,88216.00
2023-04-08T04:17:34.274Z,88216.00
2023-04-08T04:18:34.221Z,88216.00
2023-04-08T04:19:34.170Z,88216.00
2023-04-08T04:20:34.181Z,88216.00
2023-04-08T04:21:34.182Z,88216.00
2023-04-08T04:22:34.196Z,88216.00
2023-04-08T04:23:34.196Z,88216.00
2023-04-08T04:24:34.205Z,88214.00
2023-04-08T04:25:34.213Z,88218.00
2023-04-08T04:26:34.221Z,88218.00
2023-04-08T04:27:34.231Z,88218.00
2023-04-08T04:28:34.241Z,88218.00
2023-04-08T04:29:34.252Z,88222.00
2023-04-08T04:30:34.250Z,88224.00
2023-04-08T04:31:34.287Z,88222.00
2023-04-08T04:32:34.286Z,88224.00
2023-04-08T04:33:34.289Z,88224.00
2023-04-08T04:34:34.281Z,88226.00
2023-04-08T04:35:34.341Z,88224.00
2023-04-08T04:36:34.317Z,88228.00
2023-04-08T04:37:34.333Z,88228.00
2023-04-08T04:38:34.330Z,88228.00
2023-04-08T04:39:34.381Z,88232.00
2023-04-08T04:40:34.373Z,88232.00
2023-04-08T04:41:34.397Z,88232.00
2023-04-08T04:42:34.400Z,88239.00
2023-04-08T04:43:34.426Z,88239.00
2023-04-08T04:44:34.454Z,88241.00
2023-04-08T04:45:34.442Z,88239.00
2023-04-08T04:46:34.465Z,88239.00
2023-04-08T04:47:34.500Z,88232.00
2023-04-08T04:48:34.471Z,88241.00
2023-04-08T04:49:34.481Z,88239.00
2023-04-08T04:50:34.491Z,88243.00
2023-04-08T04:51:34.513Z,88243.00
2023-04-08T04:52:34.516Z,88243.00
2023-04-08T04:53:34.541Z,88245.00
2023-04-08T04:54:34.541Z,88243.00
2023-04-08T04:55:34.572Z,88243.00
2023-04-08T04:56:34.544Z,88245.00
2023-04-08T04:57:34.551Z,88247.00
2023-04-08T04:58:34.526Z,88249.00
2023-04-08T04:59:34.500Z,88249.00
2023-04-08T05:00:34.485Z,88249.00
2023-04-08T05:01:34.504Z,88251.00
2023-04-08T05:02:34.629Z,88249.00
2023-04-08T05:03:34.496Z,88249.00
2023-04-08T05:04:34.452Z,88251.00
2023-04-08T05:05:34.408Z,88251.00
2023-04-08T05:06:34.391Z,88253.00
2023-04-08T05:07:34.378Z,88254.00
2023-04-08T05:08:34.363Z,88256.00
2023-04-08T05:09:34.365Z,88258.00
2023-04-08T05:10:34.333Z,88254.00
2023-04-08T05:11:34.341Z,88258.00
2023-04-08T05:12:34.322Z,88256.00
2023-04-08T05:13:34.318Z,88258.00
2023-04-08T05:14:34.297Z,88253.00
2023-04-08T05:15:34.281Z,88253.00
2023-04-08T05:16:34.349Z,88256.00
2023-04-08T05:17:34.338Z,88256.00
2023-04-08T05:18:34.260Z,88253.00
2023-04-08T05:19:34.236Z,88254.00
2023-04-08T05:20:34.213Z,88258.00
2023-04-08T05:21:34.209Z,88260.00
2023-04-08T05:22:34.196Z,88260.00
2023-04-08T05:23:34.191Z,88256.00
2023-04-08T05:24:34.166Z,88260.00
2023-04-08T05:25:34.152Z,88260.00
2023-04-08T05:26:34.140Z,88256.00
2023-04-08T05:27:34.141Z,88256.00
2023-04-08T05:28:34.132Z,88256.00
2023-04-08T05:29:34.129Z,88256.00
2023-04-08T05:30:34.095Z,88258.00
2023-04-08T05:31:34.133Z,88260.00
2023-04-08T05:32:34.096Z,88260.00
2023-04-08T05:33:34.087Z,88264.00
2023-04-08T05:34:34.132Z,88262.00
2023-04-08T05:35:34.163Z,88266.00
2023-04-08T05:36:34.178Z,88268.00
2023-04-08T05:37:34.360Z,88268.00
2023-04-08T05:38:34.256Z,88268.00
2023-04-08T05:39:34.263Z,88266.00
2023-04-08T05:40:34.269Z,88272.00
2023-04-08T05:41:34.266Z,88270.00
2023-04-08T05:42:34.238Z,88270.00
2023-04-08T05:43:34.245Z,88272.00
2023-04-08T05:44:34.270Z,88270.00
2023-04-08T05:45:34.239Z,88272.00
2023-04-08T05:46:34.372Z,88274.00
2023-04-08T05:47:34.296Z,88272.00
2023-04-08T05:48:34.213Z,88272.00
2023-04-08T05:49:34.215Z,88274.00
2023-04-08T05:50:34.193Z,88276.00
2023-04-08T05:51:34.192Z,88274.00
2023-04-08T05:52:34.178Z,88276.00
2023-04-08T05:53:34.183Z,88276.00
2023-04-08T05:54:34.194Z,88276.00
2023-04-08T05:55:34.202Z,88280.00
2023-04-08T05:56:34.225Z,88280.00
2023-04-08T05:57:34.269Z,88282.00
2023-04-08T05:58:34.284Z,88282.00
2023-04-08T05:59:34.326Z,88284.00
2023-04-08T06:00:34.372Z,88284.00
2023-04-08T06:01:34.456Z,88284.00
2023-04-08T06:02:34.541Z,88284.00
2023-04-08T06:03:34.482Z,88284.00
2023-04-08T06:04:34.485Z,88286.00
2023-04-08T06:05:34.388Z,88286.00
2023-04-08T06:06:34.401Z,88286.00
2023-04-08T06:07:34.380Z,88288.00
2023-04-08T06:08:34.362Z,88288.00
2023-04-08T06:09:34.351Z,88288.00
2023-04-08T06:10:34.339Z,88286.00
2023-04-08T06:11:34.334Z,88290.00
2023-04-08T06:12:34.452Z,88290.00
2023-04-08T06:13:34.311Z,88288.00
2023-04-08T06:14:34.305Z,88290.00
2023-04-08T06:15:34.335Z,88290.00
2023-04-08T06:16:34.392Z,88290.00
2023-04-08T06:17:34.414Z,88290.00
2023-04-08T06:18:34.367Z,88288.00
2023-04-08T06:19:34.374Z,88286.00
2023-04-08T06:20:34.343Z,88288.00
2023-04-08T06:21:34.345Z,88290.00
2023-04-08T06:22:34.355Z,88288.00
2023-04-08T06:23:34.353Z,88288.00
2023-04-08T06:24:34.365Z,88288.00
2023-04-08T06:25:34.326Z,88290.00
2023-04-08T06:26:34.315Z,88290.00
2023-04-08T06:27:34.283Z,88290.00
2023-04-08T06:28:34.285Z,88290.00
2023-04-08T06:29:34.277Z,88290.00
2023-04-08T06:30:34.263Z,88286.00
2023-04-08T06:31:34.291Z,88286.00
2023-04-08T06:32:34.297Z,88286.00
2023-04-08T06:33:34.331Z,88286.00
2023-04-08T06:34:34.386Z,88286.00
2023-04-08T06:35:34.453Z,88286.00
2023-04-08T06:36:34.447Z,88286.00
2023-04-08T06:37:34.487Z,88284.00
2023-04-08T06:38:34.540Z,88284.00
2023-04-08T06:39:34.728Z,88286.00
2023-04-08T06:40:34.618Z,88284.00
2023-04-08T06:41:34.646Z,88282.00
2023-04-08T06:42:34.695Z,88284.00
2023-04-08T06:43:34.728Z,88282.00
2023-04-08T06:44:34.792Z,88284.00
2023-04-08T06:45:34.866Z,88284.00
2023-04-08T06:46:34.872Z,88284.00
2023-04-08T06:47:34.975Z,88282.00
2023-04-08T06:48:34.935Z,88286.00
2023-04-08T06:49:34.984Z,88284.00
2023-04-08T06:50:35.029Z,88288.00
2023-04-08T06:51:35.062Z,88286.00
2023-04-08T06:52:35.121Z,88288.00
2023-04-08T06:53:35.149Z,88288.00
2023-04-08T06:54:35.177Z,88290.00
2023-04-08T06:55:35.220Z,88288.00
2023-04-08T06:56:35.282Z,88292.00
2023-04-08T06:57:35.320Z,88292.00
2023-04-08T06:58:35.361Z,88292.00
2023-04-08T06:59:35.413Z,88294.00
2023-04-08T07:00:35.427Z,88292.00
2023-04-08T07:01:35.650Z,88290.00
2023-04-08T07:02:35.654Z,88290.00
2023-04-08T07:03:35.658Z,88288.00
2023-04-08T07:04:35.617Z,88286.00
2023-04-08T07:05:35.658Z,88286.00
2023-04-08T07:06:35.693Z,88288.00
2023-04-08T07:07:35.738Z,88290.00
2023-04-08T07:08:36.043Z,88288.00
2023-04-08T07:09:35.835Z,88290.00
2023-04-08T07:10:35.853Z,88288.00
2023-04-08T07:11:35.895Z,88294.00
2023-04-08T07:12:35.955Z,88296.00
2023-04-08T07:13:35.985Z,88294.00
2023-04-08T07:14:36.030Z,88294.00
2023-04-08T07:15:36.058Z,88296.00
2023-04-08T07:16:36.113Z,88292.00
2023-04-08T07:17:36.185Z,88294.00
2023-04-08T07:18:36.222Z,88298.00
2023-04-08T07:19:36.233Z,88298.00
2023-04-08T07:20:36.296Z,88296.00
2023-04-08T07:21:36.332Z,88296.00
2023-04-08T07:22:36.384Z,88301.00
2023-04-08T07:23:36.412Z,88301.00
2023-04-08T07:24:36.454Z,88303.00
2023-04-08T07:25:36.510Z,88303.00
2023-04-08T07:26:36.535Z,88301.00
2023-04-08T07:27:36.610Z,88303.00
2023-04-08T07:28:36.616Z,88303.00
2023-04-08T07:29:36.664Z,88301.00
2023-04-08T07:30:36.740Z,88305.00
2023-04-08T07:31:36.744Z,88303.00
2023-04-08T07:32:36.812Z,88301.00
2023-04-08T07:33:36.793Z,88301.00
2023-04-08T07:34:36.871Z,88301.00
2023-04-08T07:35:36.916Z,88301.00
2023-04-08T07:36:36.890Z,88303.00
2023-04-08T07:37:36.952Z,88303.00
2023-04-08T07:38:36.956Z,88305.00
2023-04-08T07:39:37.003Z,88303.00
2023-04-08T07:40:37.039Z,88301.00
2023-04-08T07:41:37.068Z,88301.00
2023-04-08T07:42:38.200Z,88301.00
2023-04-08T07:43:37.444Z,88301.00
2023-04-08T07:44:37.171Z,88303.00
2023-04-08T07:45:37.205Z,88303.00
2023-04-08T07:46:37.242Z,88305.00
2023-04-08T07:47:37.272Z,88303.00
2023-04-08T07:48:37.320Z,88307.00
2023-04-08T07:49:37.330Z,88307.00
2023-04-08T07:51:09.228Z,88307.00
2023-04-08T07:51:38.368Z,88307.00
2023-04-08T07:52:37.352Z,88307.00
2023-04-08T07:53:37.346Z,88309.00
2023-04-08T07:54:37.330Z,88311.00
2023-04-08T07:55:37.325Z,88313.00
2023-04-08T07:56:37.284Z,88313.00
2023-04-08T07:57:37.278Z,88313.00
2023-04-08T07:58:37.277Z,88311.00
2023-04-08T07:59:37.253Z,88313.00
2023-04-08T08:00:37.209Z,88311.00
2023-04-08T08:01:37.214Z,88313.00
2023-04-08T08:02:37.290Z,88311.00
2023-04-08T08:03:37.363Z,88311.00
2023-04-08T08:04:37.419Z,88313.00
2023-04-08T08:05:37.269Z,88311.00
2023-04-08T08:06:37.331Z,88311.00
2023-04-08T08:07:37.321Z,88311.00
2023-04-08T08:08:37.355Z,88309.00
2023-04-08T08:09:37.390Z,88309.00
2023-04-08T08:10:37.435Z,88311.00
2023-04-08T08:11:37.456Z,88311.00
2023-04-08T08:12:37.498Z,88309.00
2023-04-08T08:13:37.517Z,88307.00
2023-04-08T08:14:37.572Z,88307.00
2023-04-08T08:15:37.665Z,88305.00
2023-04-08T08:16:37.649Z,88307.00
2023-04-08T08:17:37.690Z,88309.00
2023-04-08T08:18:37.717Z,88307.00
2023-04-08T08:19:37.733Z,88309.00
2023-04-08T08:20:37.771Z,88309.00
2023-04-08T08:21:37.785Z,88307.00
2023-04-08T08:22:44.374Z,88307.00
2023-04-08T08:23:38.820Z,88303.00
2023-04-08T08:24:37.798Z,88307.00
2023-04-08T08:25:37.821Z,88303.00
2023-04-08T08:26:37.792Z,88301.00
2023-04-08T08:27:37.753Z,88303.00
2023-04-08T08:28:37.762Z,88303.00
2023-04-08T08:29:37.726Z,88307.00
2023-04-08T08:30:37.717Z,88309.00
2023-04-08T08:31:37.783Z,88307.00
2023-04-08T08:32:37.712Z,88311.00
2023-04-08T08:33:37.650Z,88309.00
2023-04-08T08:34:37.659Z,88309.00
2023-04-08T08:35:37.671Z,88307.00
2023-04-08T08:36:37.633Z,88307.00
2023-04-08T08:37:37.609Z,88309.00
2023-04-08T08:38:37.644Z,88309.00
2023-04-08T08:39:37.672Z,88311.00
2023-04-08T08:40:37.703Z,88311.00
2023-04-08T08:41:37.776Z,88309.00
2023-04-08T08:42:37.746Z,88317.00
2023-04-08T08:43:37.791Z,88317.00
2023-04-08T08:44:37.790Z,88311.00
2023-04-08T08:45:37.833Z,88311.00
2023-04-08T08:46:37.889Z,88317.00
2023-04-08T08:47:37.893Z,88315.00
2023-04-08T08:48:37.890Z,88319.00
2023-04-08T08:49:37.914Z,88317.00
2023-04-08T08:50:37.940Z,88319.00
2023-04-08T08:51:37.940Z,88321.00
2023-04-08T08:52:37.981Z,88317.00
2023-04-08T08:53:37.955Z,88315.00
2023-04-08T08:54:38.000Z,88315.00
2023-04-08T08:56:37.963Z,88313.00
2023-04-08T08:57:37.959Z,88313.00
2023-04-08T08:58:37.916Z,88311.00
2023-04-08T08:59:37.902Z,88315.00
2023-04-08T09:00:37.893Z,88315.00
2023-04-08T09:01:38.254Z,88313.00
2023-04-08T09:02:37.948Z,88315.00
2023-04-08T09:03:38.047Z,88313.00
2023-04-08T09:04:37.931Z,88317.00
2023-04-08T09:05:37.899Z,88317.00
2023-04-08T09:06:37.780Z,88315.00
2023-04-08T09:07:37.731Z,88315.00
2023-04-08T09:08:37.731Z,88319.00
2023-04-08T09:09:37.678Z,88315.00
2023-04-08T09:10:37.684Z,88315.00
2023-04-08T09:11:37.645Z,88313.00
2023-04-08T09:12:37.649Z,88313.00
2023-04-08T09:13:37.599Z,88309.00
2023-04-08T09:14:37.604Z,88311.00
2023-04-08T09:15:37.578Z,88309.00
2023-04-08T09:16:37.617Z,88309.00
2023-04-08T09:17:37.591Z,88311.00
2023-04-08T09:18:37.562Z,88309.00
2023-04-08T09:19:37.494Z,88309.00
2023-04-08T09:20:37.475Z,88309.00
2023-04-08T09:21:37.450Z,88307.00
2023-04-08T09:22:37.431Z,88303.00
2023-04-08T09:23:37.423Z,88305.00
2023-04-08T09:24:37.482Z,88307.00
2023-04-08T09:25:37.382Z,88303.00
2023-04-08T09:26:37.381Z,88303.00
2023-04-08T09:27:37.342Z,88303.00
2023-04-08T09:28:37.292Z,88303.00
2023-04-08T09:29:39.286Z,88300.00
2023-04-08T09:30:37.252Z,88300.00
2023-04-08T09:31:37.291Z,88300.00
2023-04-08T09:32:37.240Z,88296.00
2023-04-08T09:33:37.174Z,88296.00
2023-04-08T09:34:37.185Z,88296.00
2023-04-08T09:35:37.191Z,88294.00
2023-04-08T09:36:37.123Z,88292.00
2023-04-08T09:37:37.074Z,88290.00
2023-04-08T09:38:37.070Z,88288.00
2023-04-08T09:39:37.057Z,88288.00
2023-04-08T09:40:37.019Z,88286.00
2023-04-08T09:41:37.002Z,88288.00
2023-04-08T09:42:36.965Z,88288.00
2023-04-08T09:43:36.932Z,88286.00
2023-04-08T09:44:36.961Z,88286.00
2023-04-08T09:45:36.906Z,88284.00
2023-04-08T09:46:36.892Z,88286.00
2023-04-08T09:47:36.858Z,88278.00
2023-04-08T09:48:36.805Z,88278.00
2023-04-08T09:49:36.805Z,88278.00
2023-04-08T09:50:36.757Z,88276.00
2023-04-08T09:51:36.717Z,88276.00
2023-04-08T09:52:36.691Z,88276.00
2023-04-08T09:53:36.678Z,88282.00
2023-04-08T09:54:36.635Z,88280.00
2023-04-08T09:55:36.613Z,88282.00
2023-04-08T09:56:36.597Z,88282.00
2023-04-08T09:57:36.565Z,88284.00
2023-04-08T09:58:36.521Z,88278.00
2023-04-08T09:59:36.529Z,88280.00
2023-04-08T10:00:36.487Z,88278.00
2023-04-08T10:01:36.704Z,88278.00
2023-04-08T10:02:36.557Z,88282.00
2023-04-08T10:03:36.563Z,88278.00
2023-04-08T10:04:36.415Z,88278.00
2023-04-08T10:05:36.343Z,88280.00
2023-04-08T10:06:36.305Z,88278.00
2023-04-08T10:07:36.291Z,88284.00
2023-04-08T10:08:36.212Z,88286.00
2023-04-08T10:09:36.201Z,88284.00
2023-04-08T10:10:36.184Z,88282.00
2023-04-08T10:11:36.141Z,88284.00
2023-04-08T10:12:36.107Z,88282.00
2023-04-08T10:13:36.065Z,88284.00
2023-04-08T10:14:36.054Z,88284.00
2023-04-08T10:15:36.034Z,88290.00
2023-04-08T10:16:36.191Z,88286.00
2023-04-08T10:17:36.001Z,88284.00
2023-04-08T10:18:35.969Z,88284.00
2023-04-08T10:19:35.860Z,88282.00
2023-04-08T10:20:35.821Z,88280.00
2023-04-08T10:21:35.785Z,88274.00
2023-04-08T10:22:35.745Z,88278.00
2023-04-08T10:23:35.700Z,88276.00
2023-04-08T10:24:35.667Z,88278.00
2023-04-08T10:25:35.691Z,88280.00
2023-04-08T10:26:35.599Z,88282.00
2023-04-08T10:27:35.561Z,88282.00
2023-04-08T10:28:35.538Z,88284.00
2023-04-08T10:29:35.494Z,88282.00
2023-04-08T10:30:35.464Z,88276.00
2023-04-08T10:31:35.527Z,88272.00
2023-04-08T10:32:35.535Z,88266.00
2023-04-08T10:33:37.192Z,88270.00
2023-04-08T10:34:35.480Z,88268.00
2023-04-08T10:35:35.465Z,88268.00
2023-04-08T10:36:35.442Z,88264.00
2023-04-08T10:37:35.387Z,88268.00
2023-04-08T10:38:35.381Z,88264.00
2023-04-08T10:39:36.906Z,88262.00
2023-04-08T10:40:35.298Z,88264.00
2023-04-08T10:41:35.280Z,88268.00
2023-04-08T10:42:35.246Z,88262.00
2023-04-08T10:43:35.289Z,88266.00
2023-04-08T10:44:35.190Z,88264.00
2023-04-08T10:45:35.174Z,88262.00
2023-04-08T10:46:35.201Z,88264.00
2023-04-08T10:47:35.094Z,88264.00
2023-04-08T10:48:35.092Z,88266.00
2023-04-08T10:49:35.036Z,88264.00
2023-04-08T10:50:34.996Z,88264.00
2023-04-08T10:51:34.999Z,88266.00
2023-04-08T10:52:34.954Z,88268.00
2023-04-08T10:53:34.908Z,88264.00
2023-04-08T10:54:34.878Z,88270.00
2023-04-08T10:55:34.848Z,88272.00
2023-04-08T10:56:34.858Z,88274.00
2023-04-08T10:57:34.826Z,88280.00
2023-04-08T10:58:34.835Z,88280.00
2023-04-08T10:59:34.887Z,88286.00
2023-04-08T11:00:34.754Z,88288.00
2023-04-08T11:01:35.045Z,88284.00
2023-04-08T11:02:34.924Z,88286.00
2023-04-08T11:03:34.928Z,88282.00
2023-04-08T11:04:34.881Z,88284.00
2023-04-08T11:05:34.636Z,88282.00
2023-04-08T11:06:34.703Z,88284.00
2023-04-08T11:07:34.613Z,88284.00
2023-04-08T11:08:34.573Z,88288.00
2023-04-08T11:09:34.563Z,88288.00
2023-04-08T11:10:34.532Z,88290.00
2023-04-08T11:11:34.509Z,88296.00
2023-04-08T11:12:34.501Z,88294.00
2023-04-08T11:13:34.462Z,88294.00
2023-04-08T11:14:34.427Z,88298.00
2023-04-08T11:15:34.436Z,88296.00
2023-04-08T11:16:34.490Z,88300.00
2023-04-08T11:17:34.433Z,88300.00
2023-04-08T11:18:34.418Z,88300.00
2023-04-08T11:19:34.454Z,88301.00
2023-04-08T11:20:34.484Z,88300.00
2023-04-08T11:21:34.541Z,88300.00
2023-04-08T11:22:34.606Z,88300.00
2023-04-08T11:23:34.601Z,88301.00
2023-04-08T11:24:34.652Z,88303.00
2023-04-08T11:25:34.683Z,88303.00
2023-04-08T11:26:34.736Z,88301.00
2023-04-08T11:27:34.856Z,88300.00
2023-04-08T11:28:34.787Z,88303.00
2023-04-08T11:29:34.879Z,88301.00
2023-04-08T11:30:34.865Z,88301.00
2023-04-08T11:31:34.969Z,88301.00
2023-04-08T11:32:34.996Z,88303.00
2023-04-08T11:33:35.021Z,88305.00
2023-04-08T11:34:35.002Z,88307.00
2023-04-08T11:35:35.056Z,88307.00
2023-04-08T11:36:35.096Z,88305.00
2023-04-08T11:37:35.130Z,88307.00
2023-04-08T11:38:35.175Z,88307.00
2023-04-08T11:39:35.213Z,88305.00
2023-04-08T11:40:35.271Z,88303.00
2023-04-08T11:41:35.320Z,88307.00
2023-04-08T11:42:35.373Z,88311.00
2023-04-08T11:43:35.387Z,88311.00
2023-04-08T11:44:35.438Z,88309.00
2023-04-08T11:45:35.474Z,88311.00